• Join FlightAware (Why Join?)
  • Login
  • US Flag 
02:44AM EDT


 

Airport Tracker/Info


-or-


 

Live Flight TrackerFlight Track Log ✈ EGF2921 ✈ 18-May-2013 ✈ KCMI - KDFW

Flight Track Log - Related Links

Times and Time Zones

All times are in EDT time to prevent confusion due to time zone crossing. See the EGF2921 flight status page for this flight to view local times or setup timezone preferences in your user account.

Time Position Orientation Groundspeed Altitude Reporting Facility
EDT Latitude Longitude Course Direction KTS MPH feet Rate Location/Type
07:54AM 39.9942 -88.3419 270° West 226 260 4,100  Level Kansas City Center
07:55AM 39.8723 -88.5844 231° Southwest  Level FlightAware Approximate
07:55AM 39.9561 -88.4169 237° Southwest 249 287 6,100  Level Kansas City Center
07:56AM 39.8102 -88.6838 231° Southwest  Level FlightAware Approximate
07:57AM 39.7581 -88.7923 239° Southwest  Level FlightAware Approximate
07:57AM 39.9183 -88.4908 236° Southwest 247 284 8,000  Level Kansas City Center
07:58AM 39.7065 -88.9012 233° Southwest  Level FlightAware Approximate
07:58AM 39.8750 -88.5758 236° Southwest 261 300 9,900  Level Kansas City Center
07:59AM 39.6449 -89.0092 233° Southwest  Level FlightAware Approximate
07:59AM 39.8292 -88.6642 236° Southwest 285 328 11,300  Level Kansas City Center
08:00AM 39.5833 -89.1172 270° West  Level FlightAware Approximate
08:00AM 39.7789 -88.7619 236° Southwest 315 362 12,700  Level Kansas City Center
08:01AM 39.7269 -88.8622 236° Southwest 331 381 14,200 1,380 Climbing Kansas City Center
08:02AM 39.6725 -88.9639 235° Southwest 339 390 15,500 1,320 Climbing Kansas City Center
08:03AM 39.6186 -89.0697 237° Southwest 347 399 17,000 1,200 Climbing Kansas City Center
08:04AM 39.5517 -89.1956 235° Southwest 352 405 18,000 1,260 Climbing Kansas City Center
08:05AM 39.4986 -89.2964 236° Southwest 357 411 19,600 1,440 Climbing Kansas City Center
08:07AM 39.3903 -89.5003 236° Southwest 346 398 22,500 1,380 Climbing Kansas City Center
08:08AM 39.3350 -89.6028 235° Southwest 349 402 23,900 1,380 Climbing Kansas City Center
08:09AM 39.2819 -89.7033 236° Southwest 343 395 25,400 1,380 Climbing Kansas City Center
08:10AM 39.2283 -89.8039 235° Southwest 341 392 26,700 1,320 Climbing Kansas City Center
08:11AM 39.1656 -89.9217 236° Southwest 343 395 28,200 1,140 Climbing Kansas City Center
08:12AM 39.1203 -90.0050 235° Southwest 343 395 29,100 840 Climbing Kansas City Center
08:13AM 39.0653 -90.1072 235° Southwest 345 397 30,000 960 Climbing Kansas City Center
08:14AM 38.9972 -90.2333 235° Southwest 357 411 31,100 960 Climbing Kansas City Center
08:15AM 38.9403 -90.3403 236° Southwest 364 419 32,000 780 Climbing Kansas City Center
08:16AM 38.8892 -90.4358 236° Southwest 368 423 32,800 780 Climbing Kansas City Center
08:17AM 38.8236 -90.5436 232° Southwest 374 430 33,700 960 Climbing Kansas City Center
08:18AM 38.7364 -90.6614 227° Southwest 374 430 34,800 840 Climbing Kansas City Center
08:19AM 38.6781 -90.7514 230° Southwest 379 436 35,500 540 Climbing Kansas City Center
08:20AM 38.6097 -90.8503 229° Southwest 374 430 36,000 240 Climbing Kansas City Center
08:21AM 38.5386 -90.9544 229° Southwest 385 443 36,000  Level Kansas City Center
08:22AM 38.4631 -91.0636 229° Southwest 404 465 36,000  Level Kansas City Center
08:23AM 38.3686 -91.1989 228° Southwest 423 487 36,000  Level Kansas City Center
08:24AM 38.2881 -91.3172 229° Southwest 436 502 36,000  Level Kansas City Center
08:25AM 38.2081 -91.4303 228° Southwest 434 499 36,000  Level Kansas City Center
08:26AM 38.1303 -91.5394 228° Southwest 424 488 36,000  Level Kansas City Center
08:27AM 38.0542 -91.6492 229° Southwest 417 480 36,000  Level Kansas City Center
08:28AM 37.9692 -91.7700 228° Southwest 429 494 36,000  Level Kansas City Center
08:29AM 37.8956 -91.8747 228° Southwest 430 495 36,000  Level Kansas City Center
08:30AM 37.8139 -91.9883 228° Southwest 433 498 36,000  Level Kansas City Center
08:31AM 37.7372 -92.0964 228° Southwest 434 499 36,000  Level Kansas City Center
08:32AM 37.6506 -92.2167 228° Southwest 432 497 36,000  Level Kansas City Center
08:33AM 37.5711 -92.3297 228° Southwest 428 493 36,000  Level Kansas City Center
08:34AM 37.4908 -92.4414 228° Southwest 427 491 36,000  Level Kansas City Center
08:35AM 37.4106 -92.5525 228° Southwest 425 489 36,000  Level Kansas City Center
08:36AM 37.3294 -92.6608 227° Southwest 425 489 36,000  Level Kansas City Center
08:37AM 37.2511 -92.7689 228° Southwest 419 482 36,000  Level Kansas City Center
08:38AM 37.1708 -92.8769 227° Southwest 420 483 36,000  Level Kansas City Center
08:39AM 37.0919 -92.9850 228° Southwest 419 482 36,000  Level Kansas City Center
08:40AM 37.0017 -93.0786 220° Southwest 428 493 36,000  Level Kansas City Center
08:41AM 36.8989 -93.1536 210° Southwest 427 491 36,000  Level Kansas City Center
08:41AM 36.8603 -93.1858 214° Southwest 426 490 36,000  Level Memphis Center
08:42AM 36.7606 -93.2600 211° Southwest 426 490 36,000  Level Memphis Center
08:43AM 36.6608 -93.3392 212° Southwest 431 496 36,000  Level Memphis Center
08:44AM 36.5400 -93.4228 209° Southwest 439 505 36,000  Level Memphis Center
08:45AM 36.4528 -93.4889 211° Southwest 439 505 36,000  Level Memphis Center
08:46AM 36.3550 -93.5650 212° Southwest 434 499 36,000  Level Memphis Center
08:47AM 36.2531 -93.6383 210° Southwest 429 494 36,000  Level Memphis Center
08:48AM 36.1531 -93.7139 211° Southwest 429 494 36,000  Level Memphis Center
08:49AM 36.0531 -93.7869 211° Southwest 429 494 36,000  Level Memphis Center
08:50AM 35.9531 -93.8622 211° Southwest 434 499 36,000  Level Memphis Center
08:51AM 35.8531 -93.9350 211° Southwest 434 499 36,000  Level Memphis Center
08:52AM 35.7550 -94.0075 211° Southwest 429 494 36,000  Level Memphis Center
08:53AM 35.6547 -94.0797 210° Southwest 424 488 36,000  Level Memphis Center
08:54AM 35.5544 -94.1542 211° Southwest 406 467 36,000  Level Memphis Center
08:55AM 35.4586 -94.2211 210° Southwest 401 461 36,000  Level Memphis Center
08:56AM 35.3644 -94.2958 213° Southwest 401 461 36,000  Level Memphis Center
08:57AM 35.2825 -94.3861 222° Southwest 401 461 36,000  Level Memphis Center
08:58AM 35.2003 -94.4761 222° Southwest 396 456 36,000  Level Memphis Center
08:59AM 35.1217 -94.5656 223° Southwest 411 473 36,000  Level Fort Worth Center
09:00AM 35.0403 -94.6544 222° Southwest 411 473 36,000 -300 Level Fort Worth Center
09:01AM 34.9544 -94.7433 220° Southwest 411 473 35,500  Descending Fort Worth Center
09:02AM 34.8669 -94.8425 223° Southwest 411 473 36,000 240 Climbing Fort Worth Center
09:03AM 34.7811 -94.9333 221° Southwest 408 470 36,000 -360 Level Fort Worth Center
09:04AM 34.6972 -95.0217 221° Southwest 408 470 35,300 -840 Descending Fort Worth Center
09:05AM 34.6175 -95.1072 221° Southwest 408 470 34,400 -900 Descending Fort Worth Center
09:06AM 34.5500 -95.1772 221° Southwest 403 464 33,600 -1,020 Descending Fort Worth Center
09:07AM 34.4475 -95.2881 222° Southwest 409 471 32,400 -1,080 Descending Fort Worth Center
09:08AM 34.3633 -95.3756 221° Southwest 404 465 31,500 -960 Descending Fort Worth Center
09:09AM 34.2792 -95.4656 221° Southwest 404 465 30,500 -960 Descending Fort Worth Center
09:10AM 34.1889 -95.5581 220° Southwest 415 478 29,600 -1,200 Descending Fort Worth Center
09:11AM 34.1047 -95.6475 221° Southwest 439 505 28,200 -1,500 Descending Fort Worth Center
09:12AM 34.0203 -95.7397 222° Southwest 434 499 26,600 -1,800 Descending Fort Worth Center
09:13AM 33.9233 -95.8339 219° Southwest 439 505 24,600 -2,220 Descending Fort Worth Center
09:14AM 33.8369 -95.9281 222° Southwest 434 499 22,200 -2,580 Descending Fort Worth Center
09:15AM 33.7461 -96.0194 220° Southwest 426 490 19,500 -2,700 Descending Fort Worth Center
09:16AM 33.6514 -96.1208 222° Southwest 426 490 16,900 -2,460 Descending Fort Worth Center
09:17AM 33.5747 -96.1992 220° Southwest 412 474 14,600 -2,400 Descending Fort Worth Center
09:18AM 33.4900 -96.2925 223° Southwest 387 445 12,100 -1,800 Descending Fort Worth Center
09:19AM 33.4322 -96.3606 225° Southwest 350 403 11,000 -720 Descending Fort Worth Center
09:20AM 33.3703 -96.4358 225° Southwest 299 344 10,700 -660 Descending Fort Worth Center
09:21AM 33.3228 -96.4936 225° Southwest 276 318 9,700 -1,080 Descending Fort Worth Center
09:22AM 33.2794 -96.5761 238° Southwest 276 318 8,600 -1,080 Descending Fort Worth Center
09:23AM 33.2694 -96.6606 262° West 267 307 7,600 -1,020 Descending Fort Worth Center
09:24AM 33.2678 -96.7378 269° West 262 302 6,600 -1,020 Descending Fort Worth Center
09:25AM 33.2600 -96.8247 264° West 252 290 5,600 -840 Descending Fort Worth Center
09:26AM 33.2353 -96.8969 248° West 238 274 5,000 -300 Descending Fort Worth Center
09:27AM 33.2186 -96.9542 251° West 220 253 5,100  Climbing Fort Worth Center
09:28AM 33.1814 -97.0139 233° Southwest 208 239 5,000 -240 Descending Fort Worth Center
09:29AM 33.1375 -97.0264 193° South 184 212 4,700 -600 Descending Fort Worth Center
09:30AM 33.0833 -97.0267 180° South 184 212 3,800 -900 Descending Fort Worth Center
09:31AM 33.0667 -97.0167 153° Southeast 153 176 3,500 -780 Descending Dallas / Fort Worth TRACON
09:32AM 33.0167 -97.0167 180° South 141 162 2,700 -780 Descending Dallas / Fort Worth TRACON